Arivaca, Arizona
Current Conditions -  °F | °C
As of 5:54 PM on Friday 19 Dec 2014 (Local Time) from KOLS Reporting Station
Clear Clear  
Wind Chill: 47°   Ceiling: Unl
Heat Index: 49°   Visibility: 10mi
Dew Point: 35°   Wind: 6mph
Humidity: 59%   Direction: 360°N
Pressure: 30.11"   Gusts: NA
Location:  31.57°N, 111.33°W
Report Text: KOLS 200054Z AUTO 36005KT 10SM CLR 09/02 A3011 RMK AO2 SLP183 T00940017
Loading
Personal Weather Stations






























Interactive Weather Map New forecast layout! Learn more

10-Day Weather Forecast

Advertisements
Track Severe Weather on mobile